Time;durP1;ratioP1;P1;durP2;ratioP2;P2;SDS_P1;SDS_P2;PMS_P1;PMS_P2;Temp;Humidity;BMP_temperature;BMP_pressure;BME280_temperature;BME280_humidity;BME280_pressure;Samples;Min_cycle;Max_cycle;Signal;HPM_P1;HPM_P2
2023/01/12 00:02:32;;;;;;;45.97;6.70;;;;;;;;;;6091080;23;20579;-60
2023/01/12 00:04:59;;;;;;;;;;;;;;;;;;6090420;23;20034;-60
2023/01/12 00:07:33;;;;;;;47.25;6.55;;;;;;;;;;6088476;23;20258;-60
2023/01/12 00:10:00;;;;;;;54.70;6.93;;;;;;;;;;6089868;23;20113;-60
2023/01/12 00:12:27;;;;;;;48.30;6.93;;;;;;;;;;6088281;23;20022;-60
2023/01/12 00:15:01;;;;;;;54.28;7.40;;;;;;;;;;6089912;23;20057;-60
2023/01/12 00:17:28;;;;;;;51.75;7.20;;;;;;;;;;6089536;23;20033;-60
2023/01/12 00:20:09;;;;;;;56.17;7.75;;;;;;;;;;6088194;23;20067;-54
2023/01/12 00:22:36;;;;;;;50.17;7.18;;;;;;;;;;6090508;23;20057;-48
2023/01/12 00:25:10;;;;;;;49.55;7.32;;;;;;;;;;6090252;23;20090;-47
2023/01/12 00:27:37;;;;;;;51.38;7.28;;;;;;;;;;6087727;23;20097;-48
2023/01/12 00:30:04;;;;;;;53.40;7.93;;;;;;;;;;6089731;23;20030;-49
2023/01/12 00:32:38;;;;;;;57.97;7.57;;;;;;;;;;6091393;23;20046;-49
2023/01/12 00:35:05;;;;;;;56.25;7.35;;;;;;;;;;6089749;23;20464;-52
2023/01/12 00:37:33;;;;;;;47.55;6.32;;;;;;;;;;6088796;23;20117;-59
2023/01/12 00:40:08;;;;;;;56.25;6.43;;;;;;;;;;6090061;23;20113;-52
2023/01/12 00:45:29;;;;;;;48.83;5.10;;;;;;;;;;6087609;23;20414;-48
2023/01/12 00:47:56;;;;;;;50.70;6.82;;;;;;;;;;6088073;23;20206;-51
2023/01/12 00:50:30;;;;;;;41.70;6.20;;;;;;;;;;6091081;23;20245;-54
2023/01/12 00:52:57;;;;;;;71.20;8.10;;;;;;;;;;6088250;23;20101;-50
2023/01/12 00:55:31;;;;;;;44.67;6.60;;;;;;;;;;6089844;23;20049;-45
2023/01/12 00:58:05;;;;;;;51.60;7.53;;;;;;;;;;6089460;23;20105;-54
2023/01/12 01:00:39;;;;;;;42.40;5.80;;;;;;;;;;6090381;23;20018;-56
2023/01/12 01:03:06;;;;;;;46.30;6.63;;;;;;;;;;6087472;23;20113;-55
2023/01/12 01:05:33;;;;;;;38.50;6.25;;;;;;;;;;6089315;23;20116;-53
2023/01/12 01:08:07;;;;;;;55.70;7.35;;;;;;;;;;6087969;23;20421;-53
2023/01/12 01:10:34;;;;;;;36.22;6.10;;;;;;;;;;6090362;23;20138;-55
2023/01/12 01:13:01;;;;;;;49.17;7.03;;;;;;;;;;6089352;23;20416;-56
2023/01/12 01:15:35;;;;;;;42.08;7.95;;;;;;;;;;6088315;23;20109;-48
2023/01/12 01:18:02;;;;;;;57.47;7.60;;;;;;;;;;6089398;23;20022;-60
2023/01/12 01:20:42;;;;;;;56.50;7.03;;;;;;;;;;6089445;23;20109;-60
2023/01/12 01:23:10;;;;;;;49.33;7.43;;;;;;;;;;6088666;23;20022;-60
2023/01/12 01:25:44;;;;;;;53.75;7.35;;;;;;;;;;6089723;23;20028;-60
2023/01/12 01:28:11;;;;;;;;;;;;;;;;;;6089409;23;20097;-60
2023/01/12 01:30:38;;;;;;;47.92;6.57;;;;;;;;;;6089483;23;19929;-60
2023/01/12 01:33:12;;;;;;;45.60;6.78;;;;;;;;;;6088355;23;20491;-48
2023/01/12 01:35:40;;;;;;;49.97;6.57;;;;;;;;;;6088641;23;20126;-61
2023/01/12 01:38:14;;;;;;;48.15;5.97;;;;;;;;;;6089114;23;20033;-60
2023/01/12 01:40:42;;;;;;;52.03;7.00;;;;;;;;;;6090000;23;20105;-60
2023/01/12 01:43:12;;;;;;;46.10;5.70;;;;;;;;;;6089644;23;20102;-61
2023/01/12 01:45:54;;;;;;;50.92;5.82;;;;;;;;;;6087346;23;20029;-60
2023/01/12 01:48:23;;;;;;;50.15;6.32;;;;;;;;;;6088669;23;20038;-60
2023/01/12 01:51:00;;;;;;;38.60;5.35;;;;;;;;;;6088536;23;20029;-60
2023/01/12 01:53:30;;;;;;;36.92;4.55;;;;;;;;;;6089402;23;20106;-46
2023/01/12 01:56:10;;;;;;;36.22;5.43;;;;;;;;;;6089233;23;20027;-50
2023/01/12 01:58:39;;;;;;;34.35;4.72;;;;;;;;;;6089620;23;20050;-46
2023/01/12 02:01:13;;;;;;;38.15;5.22;;;;;;;;;;6088815;23;20105;-47
2023/01/12 02:03:40;;;;;;;44.08;6.18;;;;;;;;;;6088731;23;20026;-48
2023/01/12 02:06:14;;;;;;;44.45;6.05;;;;;;;;;;6087866;23;20631;-47
2023/01/12 02:08:46;;;;;;;43.00;4.72;;;;;;;;;;6090639;23;20058;-57
2023/01/12 02:16:52;;;;;;;31.88;4.95;;;;;;;;;;6088314;23;20057;-69
2023/01/12 02:19:51;;;;;;;36.83;5.32;;;;;;;;;;6088567;23;20030;-68
2023/01/12 02:22:27;;;;;;;25.63;4.32;;;;;;;;;;6088827;23;20048;-68
2023/01/12 02:25:11;;;;;;;33.10;4.15;;;;;;;;;;6088803;23;20098;-68
2023/01/12 02:27:42;;;;;;;27.48;4.55;;;;;;;;;;6087628;23;20482;-57
2023/01/12 02:30:35;;;;;;;33.75;5.38;;;;;;;;;;6088384;23;20054;-68
2023/01/12 02:33:21;;;;;;;34.92;5.05;;;;;;;;;;6088872;23;20389;-68
2023/01/12 02:36:00;;;;;;;32.42;4.63;;;;;;;;;;6089362;23;20028;-68
2023/01/12 02:38:33;;;;;;;40.47;6.82;;;;;;;;;;6088553;23;20405;-67
2023/01/12 02:44:41;;;;;;;40.35;5.43;;;;;;;;;;6087206;23;20097;-67
2023/01/12 02:47:24;;;;;;;37.40;6.00;;;;;;;;;;6073361;23;20026;-72
2023/01/12 02:49:54;;;;;;;36.63;5.80;;;;;;;;;;6089405;23;20041;-48
2023/01/12 02:52:29;;;;;;;41.42;5.68;;;;;;;;;;6089238;23;20026;-47
2023/01/12 02:54:57;;;;;;;47.28;6.10;;;;;;;;;;6089758;23;20069;-48
2023/01/12 02:57:34;;;;;;;53.45;7.07;;;;;;;;;;6088290;23;20034;-48
2023/01/12 03:00:02;;;;;;;55.30;7.75;;;;;;;;;;6088900;23;20491;-46
2023/01/12 03:02:37;;;;;;;49.63;7.53;;;;;;;;;;6090551;23;20053;-47
2023/01/12 03:05:04;;;;;;;53.53;7.05;;;;;;;;;;6088433;23;20054;-57
2023/01/12 03:07:32;;;;;;;52.00;7.05;;;;;;;;;;6088281;23;20563;-48
2023/01/12 03:10:17;;;;;;;68.97;7.22;;;;;;;;;;6089121;23;20202;-49
2023/01/12 03:12:45;;;;;;;63.28;7.00;;;;;;;;;;6088320;23;20026;-47
2023/01/12 03:15:19;;;;;;;67.15;8.40;;;;;;;;;;6087776;23;20029;-49
2023/01/12 03:17:59;;;;;;;61.75;7.35;;;;;;;;;;6089216;23;20491;-47
2023/01/12 03:20:43;;;;;;;68.43;8.18;;;;;;;;;;6087717;23;20061;-46
2023/01/12 03:23:13;;;;;;;68.70;7.93;;;;;;;;;;6088527;23;20521;-59
2023/01/12 03:25:48;;;;;;;77.20;7.82;;;;;;;;;;6088973;23;20023;-53
2023/01/12 03:28:16;;;;;;;64.93;8.50;;;;;;;;;;6087485;23;20371;-54
2023/01/12 03:30:55;;;;;;;59.80;7.70;;;;;;;;;;6088559;23;20033;-56
2023/01/12 03:33:23;;;;;;;40.78;5.70;;;;;;;;;;6088458;23;20022;-57
2023/01/12 03:36:03;;;;;;;59.33;6.65;;;;;;;;;;6088563;23;20026;-53
2023/01/12 03:38:40;;;;;;;41.63;6.28;;;;;;;;;;6089935;23;20093;-55
2023/01/12 03:41:27;;;;;;;44.13;5.43;;;;;;;;;;6089903;23;20698;-50
2023/01/12 03:43:58;;;;;;;36.05;5.22;;;;;;;;;;6091042;23;20343;-57
2023/01/12 03:46:38;;;;;;;34.55;5.18;;;;;;;;;;6065093;23;20086;-55
2023/01/12 03:49:16;;;;;;;25.48;4.28;;;;;;;;;;6090407;23;20022;-55
2023/01/12 03:51:50;;;;;;;39.33;4.72;;;;;;;;;;6090110;23;20053;-55
2023/01/12 03:54:17;;;;;;;;;;;;;;;;;;6090279;23;20093;-55
2023/01/12 03:56:53;;;;;;;29.73;3.72;;;;;;;;;;6088983;23;20039;-56
2023/01/12 03:59:21;;;;;;;26.65;4.15;;;;;;;;;;6089980;23;20413;-48
2023/01/12 04:01:55;;;;;;;31.75;3.90;;;;;;;;;;6090609;23;20768;-60
2023/01/12 04:04:22;;;;;;;19.95;2.97;;;;;;;;;;6089841;23;20062;-60
2023/01/12 04:06:49;;;;;;;22.20;3.15;;;;;;;;;;6090141;23;20137;-60
2023/01/12 04:09:24;;;;;;;15.57;3.60;;;;;;;;;;6089907;23;20065;-60
2023/01/12 04:12:10;;;;;;;26.55;3.67;;;;;;;;;;6090888;23;20113;-60
2023/01/12 04:14:44;;;;;;;17.83;3.15;;;;;;;;;;6089813;23;20097;-60
2023/01/12 04:17:14;;;;;;;22.60;3.65;;;;;;;;;;6089181;23;20026;-59
2023/01/12 04:19:41;;;;;;;17.08;3.33;;;;;;;;;;6090007;23;20398;-48
2023/01/12 04:25:13;;;;;;;13.68;2.25;;;;;;;;;;6088928;23;20106;-70
2023/01/12 04:27:41;;;;;;;7.65;2.17;;;;;;;;;;6089922;23;20023;-69
2023/01/12 04:30:17;;;;;;;13.07;2.28;;;;;;;;;;6066467;23;20635;-69
2023/01/12 04:32:45;;;;;;;11.27;1.77;;;;;;;;;;6090184;23;20031;-69
2023/01/12 04:35:12;;;;;;;;;;;;;;;;;;6089742;23;20098;-69
2023/01/12 04:37:46;;;;;;;11.45;1.73;;;;;;;;;;6089910;23;20295;-52
2023/01/12 04:40:14;;;;;;;8.73;1.85;;;;;;;;;;6088974;23;20050;-68
2023/01/12 04:43:00;;;;;;;8.93;1.98;;;;;;;;;;6089281;23;20076;-68
2023/01/12 04:45:29;;;;;;;7.78;1.70;;;;;;;;;;6088782;23;20026;-68
2023/01/12 04:48:04;;;;;;;9.50;1.50;;;;;;;;;;6091153;23;20026;-68
2023/01/12 04:50:31;;;;;;;5.35;1.65;;;;;;;;;;6088258;23;20070;-68
2023/01/12 04:53:01;;;;;;;9.70;2.53;;;;;;;;;;6089611;23;20029;-69
2023/01/12 04:55:36;;;;;;;4.63;1.20;;;;;;;;;;6088717;23;20026;-47
2023/01/12 04:58:03;;;;;;;4.47;1.30;;;;;;;;;;6089313;23;20030;-59
2023/01/12 05:00:37;;;;;;;5.57;0.95;;;;;;;;;;6089850;23;20114;-60
2023/01/12 05:03:04;;;;;;;3.25;1.13;;;;;;;;;;6089189;23;20106;-60
2023/01/12 05:05:32;;;;;;;5.97;1.20;;;;;;;;;;6089961;23;20114;-59
2023/01/12 05:10:54;;;;;;;5.30;1.02;;;;;;;;;;6090017;23;20545;-59
2023/01/12 05:13:29;;;;;;;3.55;1.10;;;;;;;;;;6089726;23;20113;-61
2023/01/12 05:15:56;;;;;;;3.17;1.00;;;;;;;;;;6088825;23;20412;-48
2023/01/12 05:18:30;;;;;;;6.20;1.05;;;;;;;;;;6090047;23;20374;-45
2023/01/12 05:21:04;;;;;;;4.55;1.00;;;;;;;;;;6089504;23;20056;-51
2023/01/12 05:23:38;;;;;;;5.07;0.80;;;;;;;;;;6089753;23;20018;-46
2023/01/12 05:26:12;;;;;;;1.58;0.70;;;;;;;;;;6086998;23;20121;-50
2023/01/12 05:28:40;;;;;;;1.23;0.60;;;;;;;;;;6088522;23;20022;-46
2023/01/12 05:31:11;;;;;;;5.07;0.93;;;;;;;;;;6089459;23;20106;-73
2023/01/12 05:33:45;;;;;;;2.38;0.82;;;;;;;;;;6088392;23;20053;-46
2023/01/12 05:36:13;;;;;;;4.30;1.02;;;;;;;;;;6088453;23;20027;-49
2023/01/12 05:38:47;;;;;;;1.40;0.70;;;;;;;;;;6089234;23;20026;-46
2023/01/12 05:41:14;;;;;;;1.38;0.60;;;;;;;;;;6088873;23;20054;-47
2023/01/12 05:43:51;;;;;;;4.03;0.90;;;;;;;;;;6088130;23;20045;-47
2023/01/12 05:46:32;;;;;;;3.78;0.77;;;;;;;;;;6085614;23;20068;-49
2023/01/12 05:48:59;;;;;;;2.90;1.00;;;;;;;;;;6084243;23;20088;-61
2023/01/12 05:51:33;;;;;;;6.35;1.23;;;;;;;;;;6087671;23;20026;-59
2023/01/12 05:54:01;;;;;;;3.08;1.13;;;;;;;;;;6087726;23;20105;-69
2023/01/12 05:56:29;;;;;;;3.78;1.15;;;;;;;;;;6085795;23;20034;-69
2023/01/12 05:59:03;;;;;;;4.50;1.10;;;;;;;;;;6087999;23;20113;-68
2023/01/12 06:01:31;;;;;;;6.28;1.00;;;;;;;;;;6085811;23;20128;-69
2023/01/12 06:04:05;;;;;;;3.58;0.95;;;;;;;;;;6089072;23;20102;-69
2023/01/12 06:06:32;;;;;;;2.75;1.00;;;;;;;;;;6090266;23;20049;-69
2023/01/12 06:09:00;;;;;;;4.65;1.42;;;;;;;;;;6088484;23;20019;-55
2023/01/12 06:14:20;;;;;;;4.78;1.38;;;;;;;;;;6089609;23;20360;-61
2023/01/12 06:16:54;;;;;;;5.72;1.25;;;;;;;;;;6088253;23;20584;-60
2023/01/12 06:19:21;;;;;;;3.40;0.82;;;;;;;;;;6085461;23;20058;-60
2023/01/12 06:22:02;;;;;;;6.95;1.35;;;;;;;;;;6089732;23;20041;-61
2023/01/12 06:24:29;;;;;;;2.72;1.13;;;;;;;;;;6089599;23;20070;-60
2023/01/12 06:27:03;;;;;;;5.43;1.60;;;;;;;;;;6089274;23;20056;-71
2023/01/12 06:29:30;;;;;;;5.78;1.63;;;;;;;;;;6089413;23;20109;-68
2023/01/12 06:31:57;;;;;;;4.53;1.58;;;;;;;;;;6088387;23;20091;-68
2023/01/12 06:34:34;;;;;;;3.67;1.50;;;;;;;;;;6088299;23;20731;-68
2023/01/12 06:37:01;;;;;;;7.82;1.92;;;;;;;;;;6088674;23;20027;-68
2023/01/12 06:39:35;;;;;;;6.28;1.50;;;;;;;;;;6089500;23;20027;-69
2023/01/12 06:44:56;;;;;;;7.32;1.92;;;;;;;;;;6089459;23;20029;-61
2023/01/12 06:47:23;;;;;;;;;;;;;;;;;;6088068;23;20094;-48
2023/01/12 06:49:51;;;;;;;10.65;2.13;;;;;;;;;;6088542;23;19928;-48
2023/01/12 06:52:26;;;;;;;6.13;2.30;;;;;;;;;;6088773;23;20101;-53
2023/01/12 06:54:53;;;;;;;9.02;2.38;;;;;;;;;;6089039;23;20442;-49
2023/01/12 06:57:27;;;;;;;6.32;2.40;;;;;;;;;;6089334;23;20055;-51
2023/01/12 06:59:55;;;;;;;11.63;3.15;;;;;;;;;;6089032;23;20026;-51
2023/01/12 07:02:22;;;;;;;9.13;2.25;;;;;;;;;;6088831;23;20054;-73
2023/01/12 07:04:56;;;;;;;7.65;2.47;;;;;;;;;;6088479;23;20105;-45
2023/01/12 07:07:23;;;;;;;16.45;2.85;;;;;;;;;;6088746;23;20065;-60
2023/01/12 07:09:57;;;;;;;11.52;2.80;;;;;;;;;;6088616;23;20064;-60
2023/01/12 07:12:24;;;;;;;15.32;3.10;;;;;;;;;;6089569;23;20160;-60
2023/01/12 07:14:51;;;;;;;14.15;3.33;;;;;;;;;;6090589;23;20057;-60
2023/01/12 07:17:25;;;;;;;24.60;4.07;;;;;;;;;;6087483;23;20133;-60
2023/01/12 07:19:52;;;;;;;13.45;4.30;;;;;;;;;;6089880;23;20034;-60
2023/01/12 07:22:26;;;;;;;19.20;3.85;;;;;;;;;;6089611;23;20037;-60
2023/01/12 07:24:53;;;;;;;23.85;3.78;;;;;;;;;;6091348;23;20058;-55
2023/01/12 07:27:23;;;;;;;17.27;4.32;;;;;;;;;;6090456;23;20026;-53
2023/01/12 07:29:57;;;;;;;19.48;4.85;;;;;;;;;;6091489;23;20101;-52
2023/01/12 07:32:26;;;;;;;22.27;4.60;;;;;;;;;;6088718;23;20451;-54
2023/01/12 07:35:00;;;;;;;24.98;4.38;;;;;;;;;;6090346;23;20097;-53
2023/01/12 07:37:27;;;;;;;19.05;4.13;;;;;;;;;;6090392;23;20097;-55
2023/01/12 07:40:01;;;;;;;22.40;3.95;;;;;;;;;;6090435;23;20097;-73
2023/01/12 07:42:36;;;;;;;34.50;5.30;;;;;;;;;;6090912;23;20750;-59
2023/01/12 07:45:10;;;;;;;29.58;4.43;;;;;;;;;;6090288;23;20030;-58
2023/01/12 07:47:37;;;;;;;23.73;4.30;;;;;;;;;;6090164;23;20026;-59
2023/01/12 07:50:05;;;;;;;22.55;3.92;;;;;;;;;;6088788;23;20559;-59
2023/01/12 07:52:40;;;;;;;26.73;4.50;;;;;;;;;;6090017;23;20413;-59
2023/01/12 07:55:07;;;;;;;30.35;4.30;;;;;;;;;;6089080;23;20854;-59
2023/01/12 07:57:41;;;;;;;22.10;4.07;;;;;;;;;;6091107;23;20026;-47
2023/01/12 08:00:08;;;;;;;38.78;4.75;;;;;;;;;;6090053;23;20118;-55
2023/01/12 08:02:36;;;;;;;34.33;5.78;;;;;;;;;;6090223;23;20463;-52
2023/01/12 08:05:10;;;;;;;33.60;5.00;;;;;;;;;;6090240;23;20023;-55
2023/01/12 08:07:38;;;;;;;27.60;4.50;;;;;;;;;;6090067;23;20018;-56
2023/01/12 08:10:12;;;;;;;35.17;4.65;;;;;;;;;;6088988;23;20110;-55
2023/01/12 08:12:40;;;;;;;33.90;5.20;;;;;;;;;;6091258;23;20413;-52
2023/01/12 08:15:14;;;;;;;23.95;4.43;;;;;;;;;;6089850;23;20069;-57
2023/01/12 08:17:59;;;;;;;27.85;4.50;;;;;;;;;;6089448;23;20832;-72
2023/01/12 08:20:41;;;;;;;32.45;4.57;;;;;;;;;;6089821;23;20373;-74
2023/01/12 08:23:17;;;;;;;43.55;4.35;;;;;;;;;;6088393;23;20552;-74
2023/01/12 08:25:55;;;;;;;24.88;4.50;;;;;;;;;;6088971;23;20634;-73
2023/01/12 08:28:25;;;;;;;36.53;4.15;;;;;;;;;;6090016;23;20027;-74
2023/01/12 08:30:59;;;;;;;18.13;3.70;;;;;;;;;;6090059;23;20026;-75
2023/01/12 08:33:26;;;;;;;29.70;3.97;;;;;;;;;;6089656;23;20089;-73
2023/01/12 08:36:00;;;;;;;31.55;3.97;;;;;;;;;;6090569;23;20065;-72
2023/01/12 08:38:27;;;;;;;17.67;3.30;;;;;;;;;;6089820;23;20026;-59
2023/01/12 08:44:02;;;;;;;23.25;3.38;;;;;;;;;;6089988;23;20057;-59
2023/01/12 08:46:37;;;;;;;14.07;3.70;;;;;;;;;;6089307;23;20026;-60
2023/01/12 08:49:12;;;;;;;12.38;3.30;;;;;;;;;;6089348;23;20492;-60
2023/01/12 08:51:43;;;;;;;21.63;3.40;;;;;;;;;;6091603;23;20030;-59
2023/01/12 08:54:18;;;;;;;17.55;3.17;;;;;;;;;;6088120;23;20022;-74
2023/01/12 08:56:45;;;;;;;20.08;3.22;;;;;;;;;;6090672;23;20034;-55
2023/01/12 08:59:19;;;;;;;19.70;3.15;;;;;;;;;;6089726;23;20029;-56
2023/01/12 09:01:46;;;;;;;25.98;3.83;;;;;;;;;;6089086;23;20030;-53
2023/01/12 09:04:14;;;;;;;13.50;2.95;;;;;;;;;;6089717;23;20045;-55
2023/01/12 09:06:48;;;;;;;14.07;2.53;;;;;;;;;;6091261;23;20050;-56
2023/01/12 09:09:17;;;;;;;17.27;2.90;;;;;;;;;;6088110;23;20031;-56
2023/01/12 09:11:51;;;;;;;11.05;2.83;;;;;;;;;;6090266;23;20106;-73
2023/01/12 09:14:18;;;;;;;10.60;2.75;;;;;;;;;;6088617;23;20097;-52
2023/01/12 09:16:45;;;;;;;18.75;3.25;;;;;;;;;;6088950;23;20057;-52
2023/01/12 09:19:26;;;;;;;18.52;3.35;;;;;;;;;;6088849;23;20022;-51
2023/01/12 09:21:59;;;;;;;22.00;3.80;;;;;;;;;;6090015;23;20500;-49
2023/01/12 09:24:33;;;;;;;15.48;3.38;;;;;;;;;;6089225;23;20030;-48
2023/01/12 09:27:00;;;;;;;18.80;3.33;;;;;;;;;;6089971;23;20396;-49
2023/01/12 09:29:27;;;;;;;20.65;3.20;;;;;;;;;;6088835;23;20081;-73
2023/01/12 09:32:01;;;;;;;17.40;2.92;;;;;;;;;;6087731;23;20068;-74
2023/01/12 09:34:28;;;;;;;21.77;3.03;;;;;;;;;;6088141;23;20045;-45
2023/01/12 09:36:55;;;;;;;20.15;4.13;;;;;;;;;;6089778;23;20034;-48
2023/01/12 09:39:29;;;;;;;19.02;3.92;;;;;;;;;;6089207;23;20105;-46
2023/01/12 09:47:43;;;;;;;20.83;3.40;;;;;;;;;;6088609;23;20025;-45
2023/01/12 09:50:26;;;;;;;13.50;3.10;;;;;;;;;;6089144;23;20113;-74
2023/01/12 09:53:17;;;;;;;20.38;3.05;;;;;;;;;;6088861;23;20543;-49
2023/01/12 09:56:08;;;;;;;29.58;4.05;;;;;;;;;;6088221;23;20117;-53
2023/01/12 09:58:51;;;;;;;14.63;3.40;;;;;;;;;;6089575;23;20030;-51
2023/01/12 10:01:19;;;;;;;23.38;4.32;;;;;;;;;;6087285;23;20125;-53
2023/01/12 10:03:57;;;;;;;27.13;4.32;;;;;;;;;;6089353;23;20098;-49
2023/01/12 10:06:24;;;;;;;23.80;4.30;;;;;;;;;;6088781;23;20082;-60
2023/01/12 10:09:00;;;;;;;27.88;4.70;;;;;;;;;;6090183;23;20121;-58
2023/01/12 10:11:34;;;;;;;28.38;4.00;;;;;;;;;;6065363;23;20483;-60
2023/01/12 10:14:01;;;;;;;29.40;4.43;;;;;;;;;;6089231;23;20113;-60
2023/01/12 10:16:47;;;;;;;24.33;4.00;;;;;;;;;;6088783;23;20027;-60
2023/01/12 10:19:41;;;;;;;24.33;4.20;;;;;;;;;;6088642;23;20049;-59
2023/01/12 10:22:35;;;;;;;18.30;3.78;;;;;;;;;;6089410;23;20050;-61
2023/01/12 10:25:28;;;;;;;29.85;4.53;;;;;;;;;;6089302;23;20543;-52
2023/01/12 10:27:57;;;;;;;27.45;4.45;;;;;;;;;;6089527;23;20066;-45
2023/01/12 10:30:31;;;;;;;24.13;4.10;;;;;;;;;;6088691;23;20098;-47
2023/01/12 10:33:27;;;;;;;20.52;5.13;;;;;;;;;;6089812;23;20026;-49
2023/01/12 10:36:15;;;;;;;26.58;4.40;;;;;;;;;;6089016;23;20101;-46
2023/01/12 10:38:52;;;;;;;21.23;4.83;;;;;;;;;;6088462;23;20537;-45
2023/01/12 10:41:20;;;;;;;31.88;4.38;;;;;;;;;;6088294;23;20242;-46
2023/01/12 10:44:00;;;;;;;24.05;3.75;;;;;;;;;;6088570;23;20098;-59
2023/01/12 10:46:30;;;;;;;38.45;5.03;;;;;;;;;;6088618;23;20105;-73
2023/01/12 10:49:13;;;;;;;23.52;4.13;;;;;;;;;;6090990;23;20357;-72
2023/01/12 10:51:51;;;;;;;23.27;4.35;;;;;;;;;;6090764;23;20073;-73
2023/01/12 10:54:26;;;;;;;31.80;4.57;;;;;;;;;;6090745;23;20109;-73
2023/01/12 10:56:56;;;;;;;22.00;4.93;;;;;;;;;;6091563;23;20097;-73
2023/01/12 10:59:32;;;;;;;34.75;5.70;;;;;;;;;;6089961;23;20056;-73
2023/01/12 11:02:08;;;;;;;18.63;4.32;;;;;;;;;;6091626;23;20065;-58
2023/01/12 11:04:44;;;;;;;20.25;4.93;;;;;;;;;;6089855;23;20023;-46
2023/01/12 11:07:13;;;;;;;32.22;5.60;;;;;;;;;;6091269;23;20023;-47
2023/01/12 11:09:41;;;;;;;27.50;4.93;;;;;;;;;;6090756;23;20033;-48
2023/01/12 11:12:20;;;;;;;24.92;4.97;;;;;;;;;;6091576;23;20097;-46
2023/01/12 11:15:04;;;;;;;26.52;4.28;;;;;;;;;;6089871;23;20101;-48
2023/01/12 11:17:42;;;;;;;32.42;4.78;;;;;;;;;;6091166;23;20101;-47
2023/01/12 11:20:29;;;;;;;23.67;4.82;;;;;;;;;;6089462;23;20054;-49
2023/01/12 11:23:11;;;;;;;30.52;4.53;;;;;;;;;;6090468;23;20401;-60
2023/01/12 11:25:46;;;;;;;29.45;4.47;;;;;;;;;;6090750;23;20054;-60
2023/01/12 11:28:18;;;;;;;25.80;4.43;;;;;;;;;;6090259;23;20939;-60
2023/01/12 11:30:54;;;;;;;20.90;3.75;;;;;;;;;;6089937;23;20062;-60
2023/01/12 11:33:28;;;;;;;24.42;4.78;;;;;;;;;;6089869;23;20026;-60
2023/01/12 11:36:05;;;;;;;33.75;4.55;;;;;;;;;;6090201;23;20022;-60
2023/01/12 11:38:40;;;;;;;20.27;4.38;;;;;;;;;;6089864;23;20026;-60
2023/01/12 11:41:33;;;;;;;37.90;4.32;;;;;;;;;;6090570;23;20097;-70
2023/01/12 11:44:20;;;;;;;49.75;5.05;;;;;;;;;;6088473;23;20022;-69
2023/01/12 11:47:03;;;;;;;30.50;4.28;;;;;;;;;;6090125;23;20097;-69
2023/01/12 11:49:44;;;;;;;29.65;4.75;;;;;;;;;;6090679;23;20022;-69
2023/01/12 11:52:18;;;;;;;36.63;4.65;;;;;;;;;;6091038;23;20070;-70
2023/01/12 11:54:45;;;;;;;34.35;4.53;;;;;;;;;;6089936;23;20652;-69
2023/01/12 11:57:22;;;;;;;34.40;4.28;;;;;;;;;;6090638;23;20058;-52
2023/01/12 12:00:03;;;;;;;36.60;5.68;;;;;;;;;;6090356;23;20030;-47
2023/01/12 12:02:37;;;;;;;46.08;4.93;;;;;;;;;;6090491;23;20101;-45
2023/01/12 12:05:05;;;;;;;;;;;;;;;;;;6089782;23;20026;-45
2023/01/12 12:07:42;;;;;;;33.03;4.70;;;;;;;;;;6091104;23;20395;-47
2023/01/12 12:10:24;;;;;;;42.97;4.40;;;;;;;;;;6090787;23;20022;-45
2023/01/12 12:13:10;;;;;;;42.45;4.88;;;;;;;;;;6089629;23;20440;-45
2023/01/12 12:16:09;;;;;;;46.72;5.70;;;;;;;;;;6089985;23;20029;-59
2023/01/12 12:18:43;;;;;;;50.28;5.47;;;;;;;;;;6089897;23;20027;-54
2023/01/12 12:21:24;;;;;;;39.53;5.53;;;;;;;;;;6088999;23;20506;-54
2023/01/12 12:23:51;;;;;;;36.13;5.15;;;;;;;;;;6090182;23;20568;-55
2023/01/12 12:26:32;;;;;;;32.25;4.88;;;;;;;;;;6089656;23;20413;-49
2023/01/12 12:28:59;;;;;;;38.83;4.88;;;;;;;;;;6089450;23;20062;-54
2023/01/12 12:31:36;;;;;;;35.05;4.80;;;;;;;;;;6091213;23;20018;-55
2023/01/12 12:34:28;;;;;;;30.77;4.25;;;;;;;;;;6089666;23;20105;-69
2023/01/12 12:37:10;;;;;;;42.65;5.07;;;;;;;;;;6089506;23;20026;-45
2023/01/12 12:39:43;;;;;;;40.80;5.63;;;;;;;;;;6088807;23;20638;-49
2023/01/12 12:45:29;;;;;;;41.58;4.80;;;;;;;;;;6089672;23;20030;-46
2023/01/12 12:48:05;;;;;;;33.22;5.05;;;;;;;;;;6088989;23;20362;-48
2023/01/12 12:50:38;;;;;;;47.95;5.20;;;;;;;;;;6089142;23;20019;-46
2023/01/12 12:53:13;;;;;;;44.95;4.55;;;;;;;;;;6089052;23;20037;-50
2023/01/12 12:55:41;;;;;;;39.28;5.28;;;;;;;;;;6090007;23;20101;-55
2023/01/12 12:58:21;;;;;;;49.13;6.28;;;;;;;;;;6089015;23;20030;-53
2023/01/12 13:00:55;;;;;;;40.38;4.82;;;;;;;;;;6089908;23;20113;-51
2023/01/12 13:03:41;;;;;;;35.60;4.78;;;;;;;;;;6089954;23;20025;-52
2023/01/12 13:06:27;;;;;;;59.10;5.40;;;;;;;;;;6089094;23;20050;-55
2023/01/12 13:09:25;;;;;;;47.65;5.53;;;;;;;;;;6089613;23;20025;-56
2023/01/12 13:11:59;;;;;;;28.50;5.13;;;;;;;;;;6089394;23;20061;-46
2023/01/12 13:14:34;;;;;;;39.28;5.53;;;;;;;;;;6088768;23;20077;-46
2023/01/12 13:17:19;;;;;;;40.83;5.32;;;;;;;;;;6088597;23;20528;-47
2023/01/12 13:20:02;;;;;;;32.67;4.97;;;;;;;;;;6088846;23;20133;-47
2023/01/12 13:22:58;;;;;;;29.25;5.03;;;;;;;;;;6090529;23;20483;-46
2023/01/12 13:25:26;;;;;;;31.77;5.32;;;;;;;;;;6089546;23;20480;-45
2023/01/12 13:28:00;;;;;;;40.20;5.63;;;;;;;;;;6089416;23;20041;-47
2023/01/12 13:30:30;;;;;;;45.22;5.72;;;;;;;;;;6088883;23;20066;-73
2023/01/12 13:33:23;;;;;;;40.15;5.78;;;;;;;;;;6090259;23;20080;-54
2023/01/12 13:35:50;;;;;;;39.50;5.32;;;;;;;;;;6088843;23;20137;-55
2023/01/12 13:38:37;;;;;;;33.13;4.57;;;;;;;;;;6088733;23;20025;-57
2023/01/12 13:41:07;;;;;;;33.25;4.82;;;;;;;;;;6090067;23;20182;-56
2023/01/12 13:43:42;;;;;;;43.92;5.88;;;;;;;;;;6090099;23;20105;-54
2023/01/12 13:46:26;;;;;;;39.30;5.00;;;;;;;;;;6086478;23;20429;-56
2023/01/12 13:49:23;;;;;;;41.58;4.93;;;;;;;;;;6088477;23;20472;-69
2023/01/12 13:52:01;;;;;;;39.90;5.88;;;;;;;;;;6089438;23;20022;-60
2023/01/12 13:54:35;;;;;;;32.60;5.32;;;;;;;;;;6089110;23;20102;-60
2023/01/12 13:57:05;;;;;;;39.75;5.28;;;;;;;;;;6088810;23;20018;-60
2023/01/12 13:59:33;;;;;;;42.05;5.03;;;;;;;;;;6089986;23;20061;-60
2023/01/12 14:02:16;;;;;;;40.05;5.80;;;;;;;;;;6089666;23;20309;-60
2023/01/12 14:04:49;;;;;;;38.55;5.35;;;;;;;;;;6089644;23;20026;-59
2023/01/12 14:07:33;;;;;;;39.47;4.88;;;;;;;;;;6089986;23;20026;-60
2023/01/12 14:10:07;;;;;;;45.45;6.10;;;;;;;;;;6088063;23;20034;-60
2023/01/12 14:12:59;;;;;;;40.78;5.15;;;;;;;;;;6090329;23;20065;-60
2023/01/12 14:18:22;;;;;;;40.42;5.65;;;;;;;;;;6088933;23;20097;-60
2023/01/12 14:20:57;;;;;;;50.80;7.38;;;;;;;;;;6088072;23;20022;-59
2023/01/12 14:23:38;;;;;;;40.42;6.28;;;;;;;;;;6088376;23;20109;-53
2023/01/12 14:26:05;;;;;;;45.90;6.50;;;;;;;;;;6088526;23;20022;-46
2023/01/12 14:28:46;;;;;;;39.10;5.55;;;;;;;;;;6090092;23;20093;-69
2023/01/12 14:31:30;;;;;;;39.80;5.78;;;;;;;;;;6089036;23;20110;-69
2023/01/12 14:33:59;;;;;;;54.23;4.87;;;;;;;;;;6087770;23;20138;-69
2023/01/12 14:36:35;;;;;;;35.58;4.95;;;;;;;;;;6089084;23;20317;-69
2023/01/12 14:39:06;;;;;;;38.20;5.70;;;;;;;;;;6063297;23;20219;-69
2023/01/12 14:47:24;;;;;;;54.95;6.07;;;;;;;;;;6088179;23;20041;-60
2023/01/12 14:50:27;;;;;;;41.80;6.00;;;;;;;;;;6089085;23;20022;-61
2023/01/12 14:52:54;;;;;;;46.53;6.18;;;;;;;;;;6086574;23;20058;-60
2023/01/12 14:55:40;;;;;;;49.60;7.45;;;;;;;;;;6087508;23;20036;-61
2023/01/12 14:58:18;;;;;;;43.05;6.13;;;;;;;;;;6088412;23;20027;-61
2023/01/12 15:00:54;;;;;;;47.33;6.45;;;;;;;;;;6089371;23;20018;-73
2023/01/12 15:03:24;;;;;;;35.65;5.70;;;;;;;;;;6088529;23;20022;-60
2023/01/12 15:06:13;;;;;;;42.63;6.78;;;;;;;;;;6088662;23;20026;-60
2023/01/12 15:08:51;;;;;;;52.47;7.43;;;;;;;;;;6088999;23;20544;-60
2023/01/12 15:11:35;;;;;;;48.03;6.68;;;;;;;;;;6087362;23;20037;-60
2023/01/12 15:14:03;;;;;;;49.60;7.07;;;;;;;;;;6089429;23;20022;-60
2023/01/12 15:28:05;;;;;;;56.58;7.28;;;;;;;;;;6088094;23;20093;-49
2023/01/12 15:30:37;;;;;;;44.97;6.68;;;;;;;;;;6088239;23;20837;-45
2023/01/12 15:33:11;;;;;;;54.35;7.82;;;;;;;;;;6088493;23;20097;-45
2023/01/12 15:35:38;;;;;;;;;;;;;;;;;;6090626;23;20026;-48
2023/01/12 15:38:07;;;;;;;44.38;6.97;;;;;;;;;;6092423;23;20004;-52
2023/01/12 15:40:41;;;;;;;49.53;6.28;;;;;;;;;;6091291;23;20461;-70
2023/01/12 15:43:08;;;;;;;;;;;;;;;;;;6091411;23;20408;-70
2023/01/12 15:45:43;;;;;;;55.33;7.40;;;;;;;;;;6090988;23;19917;-69
2023/01/12 15:48:11;;;;;;;54.88;6.82;;;;;;;;;;6090146;23;20026;-69
2023/01/12 15:50:40;;;;;;;67.75;8.07;;;;;;;;;;6090289;23;20106;-70
2023/01/12 15:53:16;;;;;;;44.15;7.78;;;;;;;;;;6090227;23;20108;-70
2023/01/12 15:55:43;;;;;;;56.47;7.45;;;;;;;;;;6090068;23;20476;-55
2023/01/12 15:58:18;;;;;;;60.92;7.22;;;;;;;;;;6089908;23;20101;-60
2023/01/12 16:00:45;;;;;;;38.65;6.55;;;;;;;;;;6090506;23;20422;-60
2023/01/12 16:03:13;;;;;;;;;;;;;;;;;;6089442;23;20053;-60
2023/01/12 16:06:06;;;;;;;46.60;6.20;;;;;;;;;;6088696;23;20055;-60
2023/01/12 16:08:33;;;;;;;;;;;;;;;;;;6091136;23;20101;-60
2023/01/12 16:11:16;;;;;;;59.75;7.18;;;;;;;;;;6089958;23;19931;-60
2023/01/12 16:13:43;;;;;;;54.00;6.57;;;;;;;;;;6090286;23;20089;-60